Ana Sayfa
METAR-TAF:

METAR-TAF

Havaalanları :

Springdale, Arkansas, Amerika Birleşik Devletleri

Enlem: 36-11N, Boylam: 094-07W, yükseklik: 412 m

Güncel hava durumu gözlemi

Rapor saat 11:48 UTC de 1 saat ve 2 dakika önce yapıldı.
Sakin rüzgar
Sıcaklık 20°C
Nem 100%
Basınç 1012 hPa
Görüş mesafesi: 8.0 km
3300 ft yükseklikte parçalı bulutlu
4200 ft yükseklikte parçalı çok bulutlu
6000 ft yükseklikte çok bulutlu
Pus,

METAR: KASG 231148Z 00000KT 5SM BR SCT033 BKN042 OVC060 20/20 A2988

Saat: 07:50 (12:50 UTC)


TAF: eksik

4.000'den fazla havaalanı için hava durumu gözlemleri ve tahminleri (METAR ve TAF raporları).

Kullanılabilir istasyonlar harita üzerinde sarı ve kırmızı noktalarla gösterilir.

İstasyonun adını görmek için fareyi noktanın üzerinde gezdirin.

Sonrasında hava gözlem ve tahminlerini görmek için tıklayın.

Haritayı değiştirmek için: yaklaştırmak için siyah artı işaretli yeşil düğmeye ve uzaklaştırmak için de eksi işaretli düğmeye hızla tıklayın; bitişik haritalar için yeşil okları kullanın.


METAR-TAF: